Hlavní strana
METAR-TAF:

METAR-TAF

Letiště :

Clemson, Jižní Karolína, Spojené státy americké

zeměpisná šířka: 34-40-20N, zeměpisná délka: 082-52-53W, výška: 272 m

Aktuální stav počasí

Zpráva byla vytvořena před 36 minutami, v 01:17 UTC
Západní vítr 5 kt
Teplota 4°C
Vlhkost vzduchu 93%
Tlak 1021 hPa
Viditelnost: 6.4 km
Oblačno až skoro zataženo ve výšce 1400 ft
Zataženo ve výšce 2000 ft
slabý déšť, kouřmo

METAR: KCEU 190117Z AUTO 27005KT 4SM -RA BR BKN014 OVC020 04/03 A3014 RMK AO2 RAB14 P0000 T00390033

Čas: 20:53 (01:53 UTC)


TAF: chybějící

Stav a předpovědi počasí z více než 4 000 letišť (zprávy METAR a TAF).

Červené a žluté tečky na mapě představují dostupné meteorologické stanice.

Když kurzor umístíte na tečku, zobrazí se název stanice.

Pak kliknutím zobrazíte stav a předpověď počasí.

Chcete-li změnit mapu, kliknutím na zelené tlačítko se znaménkem +mapu přiblížíte, kliknutím na zelené tlačítko se znaménkem – mapu oddálíte a kliknutím na zelené šipky přejdete na sousední mapy.


METAR-TAF: